Time;durP1;ratioP1;P1;durP2;ratioP2;P2;SDS_P1;SDS_P2;PMS_P1;PMS_P2;Temp;Humidity;BMP_temperature;BMP_pressure;BME280_temperature;BME280_humidity;BME280_pressure;Samples;Min_cycle;Max_cycle;Signal;HPM_P1;HPM_P2
2022/10/18 00:01:35;;;;;;;6.33;4.37;;;9.00;74.90;;;;;;5052234;28;20194;-72
2022/10/18 00:04:00;;;;;;;6.73;4.83;;;9.00;75.00;;;;;;5051231;28;20221;-72
2022/10/18 00:06:26;;;;;;;5.47;4.27;;;8.90;75.20;;;;;;5052172;28;20585;-72
2022/10/18 00:08:52;;;;;;;7.03;5.03;;;8.90;74.60;;;;;;5055208;28;20218;-72
2022/10/18 00:11:17;;;;;;;4.90;4.40;;;8.80;74.40;;;;;;5051456;28;20249;-72
2022/10/18 00:13:43;;;;;;;6.63;5.47;;;8.80;73.80;;;;;;5049808;28;20178;-72
2022/10/18 00:16:12;;;;;;;5.00;4.50;;;8.80;74.40;;;;;;5053889;28;20670;-71
2022/10/18 00:18:39;;;;;;;5.80;5.30;;;8.70;75.00;;;;;;5050610;28;20774;-71
2022/10/18 00:21:09;;;;;;;5.70;4.67;;;8.70;74.00;;;;;;5051859;28;20179;-73
2022/10/18 00:23:35;;;;;;;7.03;4.63;;;8.60;74.20;;;;;;5053002;28;20197;-72
2022/10/18 00:26:07;;;;;;;7.37;5.13;;;8.60;74.80;;;;;;5051357;28;20275;-72
2022/10/18 00:28:33;;;;;;;6.57;4.87;;;8.60;75.90;;;;;;5045782;28;20602;-72
2022/10/18 00:31:21;;;;;;;8.70;5.00;;;8.60;75.00;;;;;;5052754;28;20198;-72
2022/10/18 00:33:52;;;;;;;7.37;4.73;;;8.50;75.30;;;;;;5050311;28;20209;-72
2022/10/18 00:36:18;;;;;;;6.47;3.93;;;8.50;75.20;;;;;;5050916;28;20658;-72
2022/10/18 00:38:45;;;;;;;5.70;4.13;;;8.40;75.00;;;;;;5054675;28;20188;-72
2022/10/18 00:41:13;;;;;;;8.50;4.63;;;8.40;75.20;;;;;;5055659;28;20567;-72
2022/10/18 00:43:57;;;;;;;4.63;4.20;;;8.40;74.90;;;;;;5054017;28;20206;-72
2022/10/18 00:46:24;;;;;;;4.90;4.33;;;8.40;74.40;;;;;;5055030;28;20180;-72
2022/10/18 00:48:51;;;;;;;6.30;5.00;;;8.30;75.30;;;;;;5054950;28;21042;-72
2022/10/18 00:51:19;;;;;;;4.23;3.83;;;8.30;76.00;;;;;;5056163;28;20207;-72
2022/10/18 00:53:45;;;;;;;5.00;4.17;;;8.30;75.80;;;;;;5055747;28;20175;-72
2022/10/18 00:56:12;;;;;;;3.60;3.27;;;8.30;75.50;;;;;;5057680;28;20171;-72
2022/10/18 00:58:38;;;;;;;4.33;3.77;;;8.30;75.50;;;;;;5037312;28;20664;-71
2022/10/18 01:01:04;;;;;;;5.03;3.77;;;8.30;76.00;;;;;;5052230;28;20233;-72
2022/10/18 01:03:31;;;;;;;4.20;3.83;;;8.20;75.90;;;;;;5051586;28;20584;-72
2022/10/18 01:05:56;;;;;;;7.87;3.50;;;8.20;75.30;;;;;;5053735;28;20179;-73
2022/10/18 01:08:34;;;;;;;4.47;4.07;;;8.20;76.00;;;;;;5040503;28;20183;-72
2022/10/18 01:11:38;;;;;;;7.00;4.27;;;8.20;77.00;;;;;;5053970;28;20199;-72
2022/10/18 01:14:49;;;;;;;6.27;3.73;;;8.10;76.90;;;;;;4973016;28;20664;-72
2022/10/18 01:17:50;;;;;;;4.00;3.70;;;8.10;76.00;;;;;;4945478;29;20195;-72
2022/10/18 01:20:43;;;;;;;7.07;3.90;;;8.00;76.30;;;;;;4946865;29;20198;-72
2022/10/18 01:23:11;;;;;;;3.57;3.10;;;8.00;76.40;;;;;;4946541;29;20207;-72
2022/10/18 01:25:52;;;;;;;5.20;3.47;;;8.00;77.20;;;;;;4944358;29;20817;-72
2022/10/18 01:28:36;;;;;;;4.30;3.60;;;8.00;77.00;;;;;;4946291;29;20369;-72
2022/10/18 01:31:33;;;;;;;4.13;3.70;;;8.00;76.60;;;;;;4945625;28;20207;-73
2022/10/18 01:34:04;;;;;;;4.60;2.40;;;7.90;76.20;;;;;;4946001;29;20211;-73
2022/10/18 01:36:36;;;;;;;4.60;4.30;;;7.90;76.90;;;;;;4944193;29;20210;-72
2022/10/18 01:39:06;;;;;;;3.77;3.43;;;7.80;76.10;;;;;;4945514;29;20205;-72
2022/10/18 01:41:34;;;;;;;3.40;3.10;;;7.90;77.40;;;;;;4945221;29;20870;-72
2022/10/18 01:44:02;;;;;;;3.33;3.13;;;7.90;77.30;;;;;;4946335;29;20218;-71
2022/10/18 01:46:28;;;;;;;4.20;3.80;;;7.90;78.30;;;;;;4944945;29;20210;-71
2022/10/18 01:48:56;;;;;;;3.33;3.13;;;7.80;78.20;;;;;;4969557;28;20226;-71
2022/10/18 01:51:29;;;;;;;5.70;3.77;;;7.80;78.70;;;;;;5030331;28;20184;-71
2022/10/18 01:53:56;;;;;;;3.33;3.03;;;7.80;77.90;;;;;;5057056;28;20183;-71
2022/10/18 01:56:44;;;;;;;4.47;3.20;;;7.70;78.00;;;;;;5051607;28;20240;-72
2022/10/18 01:59:22;;;;;;;4.77;3.03;;;7.70;78.20;;;;;;5053552;28;20187;-72
2022/10/18 02:02:11;;;;;;;3.23;3.03;;;7.70;78.00;;;;;;5049403;28;20201;-71
2022/10/18 02:04:43;;;;;;;4.03;3.37;;;7.60;76.50;;;;;;5048581;28;20211;-73
2022/10/18 02:07:31;;;;;;;3.77;2.97;;;7.50;77.00;;;;;;5052333;28;20184;-72
2022/10/18 02:10:17;;;;;;;3.23;2.53;;;7.50;76.80;;;;;;5053853;28;20294;-72
2022/10/18 02:12:45;;;;;;;2.73;2.63;;;7.50;76.80;;;;;;5053231;28;20759;-71
2022/10/18 02:15:14;;;;;;;5.57;3.70;;;7.50;77.40;;;;;;5055518;28;20238;-71
2022/10/18 02:17:40;;;;;;;5.87;3.90;;;7.50;77.30;;;;;;5054442;28;20190;-71
2022/10/18 02:20:08;;;;;;;4.77;4.17;;;7.50;77.60;;;;;;5038187;28;20618;-72
2022/10/18 02:22:36;;;;;;;4.60;4.20;;;7.50;77.50;;;;;;5053165;28;20187;-72
2022/10/18 02:25:09;;;;;;;4.70;4.10;;;7.50;77.40;;;;;;5051849;28;20706;-72
2022/10/18 02:27:35;;;;;;;5.30;3.63;;;7.50;77.20;;;;;;5037536;28;20695;-71
2022/10/18 02:30:01;;;;;;;4.37;3.73;;;7.50;77.50;;;;;;5055999;28;20211;-71
2022/10/18 02:32:37;;;;;;;3.10;2.87;;;7.50;77.50;;;;;;5052510;28;20281;-71
2022/10/18 02:35:09;;;;;;;6.77;4.03;;;7.40;77.20;;;;;;5052278;28;20241;-72
2022/10/18 02:37:40;;;;;;;6.77;3.70;;;7.40;77.40;;;;;;5058452;28;20183;-72
2022/10/18 02:40:09;;;;;;;4.13;3.77;;;7.40;77.30;;;;;;5052870;28;20179;-72
2022/10/18 02:42:37;;;;;;;3.63;3.37;;;7.40;77.50;;;;;;5048871;28;20273;-73
2022/10/18 02:45:04;;;;;;;7.53;3.47;;;7.40;77.60;;;;;;5057211;28;20190;-72
2022/10/18 02:47:30;;;;;;;3.93;3.60;;;7.30;78.00;;;;;;5055198;28;20184;-72
2022/10/18 02:49:56;;;;;;;3.40;3.10;;;7.30;77.70;;;;;;5056728;28;20233;-72
2022/10/18 02:52:22;;;;;;;3.93;3.00;;;7.30;78.00;;;;;;5037025;28;20203;-71
2022/10/18 02:54:48;;;;;;;3.70;3.37;;;7.20;77.70;;;;;;5055262;28;20272;-71
2022/10/18 02:57:13;;;;;;;3.33;2.97;;;7.20;77.50;;;;;;5056227;28;20186;-72
2022/10/18 02:59:39;;;;;;;3.53;3.23;;;7.20;77.90;;;;;;5051921;28;20270;-71
2022/10/18 03:02:05;;;;;;;4.57;3.07;;;7.20;77.70;;;;;;5055127;28;20210;-72
2022/10/18 03:04:30;;;;;;;4.30;3.90;;;7.20;78.00;;;;;;5034557;28;20266;-72
2022/10/18 03:06:56;;;;;;;2.90;2.80;;;7.20;78.00;;;;;;5053233;28;20780;-72
2022/10/18 03:09:21;;;;;;;3.17;2.87;;;7.20;78.00;;;;;;5051022;28;20219;-72
2022/10/18 03:11:47;;;;;;;5.37;3.67;;;7.10;77.90;;;;;;5052906;28;20187;-72
2022/10/18 03:14:13;;;;;;;3.93;3.63;;;7.10;78.10;;;;;;5051371;28;20179;-73
2022/10/18 03:16:38;;;;;;;3.97;3.20;;;7.10;78.40;;;;;;5050555;28;20263;-73
2022/10/18 03:19:04;;;;;;;3.63;3.33;;;7.10;78.30;;;;;;5054553;28;20183;-72
2022/10/18 03:21:30;;;;;;;4.67;3.30;;;7.10;78.40;;;;;;5053489;28;20201;-72
2022/10/18 03:23:57;;;;;;;6.43;3.77;;;7.10;78.40;;;;;;5054988;28;20182;-73
2022/10/18 03:26:23;;;;;;;3.87;3.13;;;7.10;78.50;;;;;;5032843;28;20179;-72
2022/10/18 03:28:48;;;;;;;2.93;2.73;;;7.10;78.80;;;;;;5050236;28;20195;-74
2022/10/18 03:31:14;;;;;;;3.67;3.37;;;7.10;79.10;;;;;;5047176;28;20187;-72
2022/10/18 03:33:40;;;;;;;3.63;3.33;;;7.10;78.90;;;;;;5054927;28;20183;-71
2022/10/18 03:36:05;;;;;;;3.70;2.73;;;7.10;79.20;;;;;;5056216;28;20184;-72
2022/10/18 03:38:31;;;;;;;4.43;3.97;;;7.10;79.20;;;;;;5051042;28;20179;-72
2022/10/18 03:40:57;;;;;;;3.23;3.03;;;7.00;79.00;;;;;;5053146;28;20187;-72
2022/10/18 03:43:23;;;;;;;3.37;3.07;;;7.00;79.40;;;;;;5051547;28;20206;-71
2022/10/18 03:45:49;;;;;;;3.73;3.43;;;7.00;79.00;;;;;;5051589;28;20300;-72
2022/10/18 03:48:14;;;;;;;9.73;3.70;;;6.90;79.70;;;;;;5051812;28;20209;-72
2022/10/18 03:50:41;;;;;;;4.10;3.80;;;6.90;79.40;;;;;;5051278;28;20230;-72
2022/10/18 03:53:06;;;;;;;4.00;3.30;;;6.80;79.70;;;;;;5054540;28;20188;-72
2022/10/18 03:55:32;;;;;;;5.87;3.00;;;6.80;79.60;;;;;;5054090;28;20246;-72
2022/10/18 03:57:58;;;;;;;3.20;3.00;;;6.70;79.00;;;;;;5054074;28;20182;-71
2022/10/18 04:00:24;;;;;;;3.93;3.60;;;6.70;79.40;;;;;;5049011;28;20183;-71
2022/10/18 04:02:49;;;;;;;4.20;2.63;;;6.70;80.10;;;;;;5046845;28;20561;-73
2022/10/18 04:05:15;;;;;;;3.63;3.33;;;6.70;79.90;;;;;;5050512;28;20191;-73
2022/10/18 04:07:41;;;;;;;5.17;3.50;;;6.70;79.40;;;;;;5051088;28;20175;-73
2022/10/18 04:10:07;;;;;;;3.23;2.87;;;6.60;79.70;;;;;;5052870;28;20203;-73
2022/10/18 04:12:32;;;;;;;5.50;4.20;;;6.60;79.60;;;;;;5050006;28;20183;-73
2022/10/18 04:14:58;;;;;;;4.00;3.53;;;6.60;79.40;;;;;;5053522;28;20230;-73
2022/10/18 04:17:24;;;;;;;4.13;3.20;;;6.60;79.80;;;;;;5048296;28;20564;-73
2022/10/18 04:19:49;;;;;;;4.33;3.90;;;6.60;79.80;;;;;;5048549;28;20186;-73
2022/10/18 04:22:15;;;;;;;3.70;3.50;;;6.60;79.70;;;;;;5053549;28;20183;-73
2022/10/18 04:24:40;;;;;;;3.53;3.33;;;6.60;80.50;;;;;;5047506;28;20193;-73
2022/10/18 04:27:07;;;;;;;4.37;3.30;;;6.60;80.20;;;;;;5046334;28;20178;-73
2022/10/18 04:29:33;;;;;;;3.97;3.57;;;6.60;80.20;;;;;;5048074;28;20207;-73
2022/10/18 04:31:58;;;;;;;3.33;3.13;;;6.60;80.40;;;;;;5053327;28;20251;-74
2022/10/18 04:34:24;;;;;;;5.53;3.40;;;6.60;80.20;;;;;;5050525;28;20840;-73
2022/10/18 04:36:50;;;;;;;3.80;3.50;;;6.60;80.20;;;;;;5050247;28;20270;-73
2022/10/18 04:39:15;;;;;;;9.53;2.80;;;6.60;80.40;;;;;;5050439;28;20195;-74
2022/10/18 04:41:41;;;;;;;2.93;2.63;;;6.60;80.40;;;;;;5044932;28;20619;-73
2022/10/18 04:44:06;;;;;;;4.10;3.33;;;6.60;80.30;;;;;;5040472;28;20195;-74
2022/10/18 04:46:32;;;;;;;6.30;3.57;;;6.60;80.50;;;;;;5045233;28;20182;-73
2022/10/18 04:49:00;;;;;;;3.60;3.30;;;6.60;80.30;;;;;;5047014;28;20623;-74
2022/10/18 04:51:29;;;;;;;4.20;3.80;;;6.60;80.30;;;;;;5032225;28;20191;-74
2022/10/18 04:53:54;;;;;;;8.87;3.40;;;6.50;80.30;;;;;;5050303;28;20194;-74
2022/10/18 04:56:20;;;;;;;4.83;3.47;;;6.50;80.50;;;;;;5046539;28;20639;-73
2022/10/18 04:58:46;;;;;;;3.93;3.60;;;6.50;80.50;;;;;;5053379;28;20191;-73
2022/10/18 05:01:12;;;;;;;5.00;4.37;;;6.50;80.40;;;;;;5050384;28;20219;-72
2022/10/18 05:03:37;;;;;;;8.47;4.03;;;6.50;80.60;;;;;;5045905;28;20225;-74
2022/10/18 05:06:04;;;;;;;4.97;3.57;;;6.50;80.80;;;;;;5049387;28;20186;-73
2022/10/18 05:08:31;;;;;;;4.03;3.63;;;6.50;80.80;;;;;;5026538;28;20203;-73
2022/10/18 05:10:57;;;;;;;8.90;4.57;;;6.50;80.90;;;;;;5049493;28;20211;-73
2022/10/18 05:13:23;;;;;;;5.07;3.77;;;6.50;80.70;;;;;;5054456;28;20695;-74
2022/10/18 05:15:49;;;;;;;6.60;3.97;;;6.50;80.70;;;;;;5051566;28;20183;-74
2022/10/18 05:18:14;;;;;;;5.00;3.97;;;6.50;80.80;;;;;;5052751;28;20187;-73
2022/10/18 05:20:40;;;;;;;4.83;4.10;;;6.50;81.10;;;;;;5049812;28;20183;-74
2022/10/18 05:23:09;;;;;;;4.53;3.77;;;6.50;80.80;;;;;;5053699;28;20648;-74
2022/10/18 05:25:40;;;;;;;4.20;3.80;;;6.50;81.00;;;;;;5056924;28;20265;-74
2022/10/18 05:28:06;;;;;;;4.87;3.43;;;6.50;81.00;;;;;;5056321;28;20222;-73
2022/10/18 05:30:32;;;;;;;4.20;3.80;;;6.50;81.20;;;;;;5056006;28;20210;-73
2022/10/18 05:32:58;;;;;;;5.63;3.83;;;6.50;81.40;;;;;;5037320;28;20278;-73
2022/10/18 05:35:24;;;;;;;7.90;3.73;;;6.50;81.40;;;;;;5055338;28;20266;-73
2022/10/18 05:37:49;;;;;;;5.40;3.93;;;6.60;81.70;;;;;;5055395;28;20217;-74
2022/10/18 05:40:15;;;;;;;4.03;3.73;;;6.60;81.60;;;;;;5056596;28;20665;-73
2022/10/18 05:42:41;;;;;;;4.20;3.93;;;6.60;81.70;;;;;;5056284;28;20183;-73
2022/10/18 05:45:07;;;;;;;4.03;3.73;;;6.60;81.50;;;;;;5055423;28;20180;-74
2022/10/18 05:47:32;;;;;;;4.17;3.43;;;6.60;81.50;;;;;;5056138;28;20214;-74
2022/10/18 05:49:58;;;;;;;4.40;3.73;;;6.60;81.90;;;;;;5052340;28;20271;-73
2022/10/18 05:52:24;;;;;;;6.87;3.40;;;6.60;81.90;;;;;;5051048;28;20188;-74
2022/10/18 05:54:49;;;;;;;3.73;3.43;;;6.70;81.60;;;;;;5052050;28;20187;-74
2022/10/18 05:57:15;;;;;;;6.00;3.63;;;6.70;81.90;;;;;;5054668;28;20208;-74
2022/10/18 05:59:41;;;;;;;3.90;3.50;;;6.70;81.60;;;;;;5054669;28;20215;-73
2022/10/18 06:02:09;;;;;;;6.80;3.87;;;6.80;81.50;;;;;;5057080;28;20178;-74
2022/10/18 06:04:35;;;;;;;3.90;3.60;;;6.80;81.50;;;;;;5055775;28;20332;-74
2022/10/18 06:07:01;;;;;;;5.67;4.13;;;6.80;81.50;;;;;;5056471;28;20206;-71
2022/10/18 06:09:27;;;;;;;3.70;3.33;;;6.90;81.80;;;;;;5053652;28;20580;-73
2022/10/18 06:11:54;;;;;;;6.17;3.67;;;6.90;81.90;;;;;;5037985;28;20673;-73
2022/10/18 06:14:19;;;;;;;4.27;3.93;;;7.00;82.00;;;;;;5055805;28;20214;-73
2022/10/18 06:16:45;;;;;;;7.20;4.60;;;7.10;82.00;;;;;;5057872;28;20793;-74
2022/10/18 06:19:11;;;;;;;3.77;3.27;;;7.10;82.20;;;;;;5055483;28;20180;-73
2022/10/18 06:21:36;;;;;;;4.47;3.90;;;7.20;82.10;;;;;;5054534;28;20739;-74
2022/10/18 06:24:02;;;;;;;7.20;4.70;;;7.20;82.10;;;;;;5053121;28;20652;-74
2022/10/18 06:26:28;;;;;;;6.77;3.67;;;7.30;82.60;;;;;;5055340;28;20179;-72
2022/10/18 06:28:54;;;;;;;3.97;3.67;;;7.40;82.80;;;;;;5055509;28;20724;-72
2022/10/18 06:31:20;;;;;;;7.30;4.23;;;7.40;82.30;;;;;;5055098;28;20183;-73
2022/10/18 06:33:46;;;;;;;4.63;4.20;;;7.40;82.10;;;;;;5034721;28;20184;-73
2022/10/18 06:36:23;;;;;;;4.50;3.90;;;7.50;82.20;;;;;;5054714;28;20184;-72
2022/10/18 06:38:49;;;;;;;4.63;4.23;;;7.60;82.10;;;;;;5050309;28;20244;-73
2022/10/18 06:41:15;;;;;;;5.83;4.40;;;7.60;81.90;;;;;;5052393;28;20658;-73
2022/10/18 06:43:41;;;;;;;6.10;4.03;;;7.70;81.90;;;;;;5056368;28;20218;-73
2022/10/18 06:46:07;;;;;;;4.03;3.70;;;7.80;81.80;;;;;;5052030;28;20176;-73
2022/10/18 06:48:35;;;;;;;4.70;4.30;;;7.80;81.60;;;;;;5051043;28;20183;-73
2022/10/18 06:51:04;;;;;;;5.10;4.17;;;7.90;81.60;;;;;;5051250;28;20226;-73
2022/10/18 06:53:32;;;;;;;3.93;3.57;;;8.00;81.20;;;;;;5056593;28;20557;-72
2022/10/18 06:56:03;;;;;;;5.43;4.90;;;8.10;80.70;;;;;;5056747;28;20226;-74
2022/10/18 06:58:30;;;;;;;8.07;4.90;;;8.20;80.40;;;;;;5051844;28;20184;-74
2022/10/18 07:00:56;;;;;;;7.00;5.67;;;8.30;80.60;;;;;;5039634;28;20187;-74
2022/10/18 07:03:22;;;;;;;6.60;5.70;;;8.40;82.50;;;;;;5052949;28;20191;-73
2022/10/18 07:05:48;;;;;;;11.57;6.00;;;8.60;83.30;;;;;;5054859;28;20672;-73
2022/10/18 07:08:15;;;;;;;6.40;5.40;;;8.90;83.00;;;;;;5052258;28;20546;-73
2022/10/18 07:10:40;;;;;;;8.20;6.27;;;9.30;83.80;;;;;;5054414;28;20215;-73
2022/10/18 07:13:06;;;;;;;8.33;6.10;;;10.00;83.20;;;;;;5054973;28;20230;-73
2022/10/18 07:15:32;;;;;;;10.57;5.93;;;10.80;84.80;;;;;;5050739;28;20278;-74
2022/10/18 07:17:58;;;;;;;9.30;5.90;;;11.80;83.20;;;;;;5057086;28;20266;-74
2022/10/18 07:20:24;;;;;;;9.18;6.70;;;12.80;80.10;;;;;;5060197;28;20269;-74
2022/10/18 07:22:49;;;;;;;8.43;7.65;;;13.70;73.20;;;;;;5053133;28;20225;-73
2022/10/18 07:25:15;;;;;;;14.25;7.57;;;14.50;72.80;;;;;;5057106;28;20184;-73
2022/10/18 07:27:42;;;;;;;11.90;8.13;;;15.40;70.20;;;;;;5048259;28;20257;-73
2022/10/18 07:30:08;;;;;;;13.50;10.85;;;16.20;68.60;;;;;;5049440;28;20646;-74
2022/10/18 07:32:34;;;;;;;17.38;12.07;;;17.00;66.90;;;;;;5051444;28;20682;-74
2022/10/18 07:35:01;;;;;;;17.73;12.65;;;17.70;64.60;;;;;;5054185;28;20266;-74
2022/10/18 07:37:27;;;;;;;14.90;12.23;;;18.40;63.40;;;;;;5034217;28;20210;-73
2022/10/18 07:39:53;;;;;;;12.23;10.10;;;19.00;62.30;;;;;;5055888;28;20272;-74
2022/10/18 07:42:19;;;;;;;16.63;10.77;;;19.60;62.20;;;;;;5053714;28;20731;-74
2022/10/18 07:44:44;;;;;;;14.13;10.30;;;20.20;61.50;;;;;;5051704;28;20286;-74
2022/10/18 07:47:10;;;;;;;14.15;9.73;;;20.90;59.50;;;;;;5052251;28;20660;-73
2022/10/18 07:49:36;;;;;;;12.07;9.00;;;21.50;58.60;;;;;;5049464;28;20208;-73
2022/10/18 07:52:02;;;;;;;14.00;9.88;;;22.10;57.60;;;;;;5052688;28;20175;-72
2022/10/18 07:54:27;;;;;;;13.07;9.35;;;22.70;56.40;;;;;;5048843;28;20183;-73
2022/10/18 07:56:53;;;;;;;10.05;8.60;;;23.20;54.90;;;;;;5049848;28;20202;-72
2022/10/18 07:59:18;;;;;;;16.48;8.35;;;23.70;54.40;;;;;;5053316;28;20233;-73
2022/10/18 08:01:44;;;;;;;9.77;8.65;;;24.00;54.80;;;;;;5056073;28;20187;-73
2022/10/18 08:04:10;;;;;;;9.98;8.45;;;24.40;53.90;;;;;;5053084;28;20183;-73
2022/10/18 08:06:36;;;;;;;10.23;8.73;;;24.80;53.10;;;;;;5052337;28;20186;-72
2022/10/18 08:09:02;;;;;;;9.57;8.65;;;25.20;52.90;;;;;;5052405;28;20182;-73
2022/10/18 08:11:27;;;;;;;12.98;9.45;;;25.60;51.50;;;;;;5055698;28;20183;-73
2022/10/18 08:13:53;;;;;;;11.25;8.95;;;26.00;51.90;;;;;;5054472;28;20195;-73
2022/10/18 08:16:29;;;;;;;9.45;8.50;;;26.40;50.70;;;;;;5055189;28;20187;-73
2022/10/18 08:18:57;;;;;;;16.20;8.40;;;26.80;50.00;;;;;;5033631;28;20573;-73
2022/10/18 08:21:23;;;;;;;11.43;8.38;;;27.20;50.70;;;;;;5055999;28;20314;-73
2022/10/18 08:23:49;;;;;;;8.82;8.05;;;27.50;49.30;;;;;;5055601;28;20256;-72
2022/10/18 08:26:17;;;;;;;11.18;9.02;;;27.90;49.90;;;;;;5054931;28;20236;-73
2022/10/18 08:28:43;;;;;;;13.60;8.85;;;28.30;48.90;;;;;;5055957;28;20190;-72
2022/10/18 08:31:11;;;;;;;9.98;8.38;;;28.70;47.70;;;;;;5051964;28;20398;-74
2022/10/18 08:33:38;;;;;;;11.40;8.95;;;29.20;47.10;;;;;;5052146;28;20309;-74
2022/10/18 08:36:06;;;;;;;9.88;8.98;;;29.60;47.10;;;;;;5052657;28;20179;-75
2022/10/18 08:38:34;;;;;;;10.93;9.32;;;30.00;45.80;;;;;;5053854;28;20214;-75
2022/10/18 08:41:22;;;;;;;12.25;9.25;;;30.40;45.30;;;;;;5055566;28;20194;-72
2022/10/18 08:44:22;;;;;;;9.43;8.48;;;30.70;44.60;;;;;;5054528;28;20264;-74
2022/10/18 08:46:51;;;;;;;9.43;8.63;;;31.00;45.50;;;;;;5047892;28;20601;-73
2022/10/18 08:49:40;;;;;;;11.32;8.75;;;31.30;44.70;;;;;;5054128;28;20218;-73
2022/10/18 08:52:30;;;;;;;11.95;8.98;;;31.60;43.90;;;;;;4970911;28;20782;-72
2022/10/18 08:55:21;;;;;;;9.77;8.75;;;31.60;44.00;;;;;;4971530;28;20418;-72
2022/10/18 08:57:48;;;;;;;14.95;9.27;;;31.60;42.30;;;;;;4975106;28;20198;-72
2022/10/18 09:00:19;;;;;;;9.02;8.18;;;31.70;43.60;;;;;;4976117;28;20767;-74
2022/10/18 09:03:29;;;;;;;11.43;8.60;;;31.80;44.50;;;;;;4974593;28;20229;-74
2022/10/18 09:06:38;;;;;;;10.20;8.55;;;31.90;43.60;;;;;;4972397;28;21027;-73
2022/10/18 09:09:24;;;;;;;9.38;8.32;;;32.10;43.60;;;;;;4871249;29;20197;-75
2022/10/18 09:12:05;;;;;;;10.65;7.72;;;32.60;43.90;;;;;;4869093;29;20792;-74
2022/10/18 09:15:03;;;;;;;8.60;7.85;;;32.90;43.70;;;;;;4883966;29;20197;-72
2022/10/18 09:17:49;;;;;;;9.85;7.43;;;33.30;41.30;;;;;;4832915;29;20199;-74
2022/10/18 09:20:55;;;;;;;9.52;8.63;;;33.30;42.50;;;;;;4834505;29;20286;-74
2022/10/18 09:23:44;;;;;;;8.50;7.60;;;33.40;41.50;;;;;;4833945;29;20274;-75
2022/10/18 09:26:19;;;;;;;7.78;7.10;;;33.50;41.80;;;;;;4834483;29;20245;-73
2022/10/18 09:29:06;;;;;;;7.57;6.97;;;33.60;41.30;;;;;;4839607;29;21110;-73
2022/10/18 09:32:11;;;;;;;7.95;7.28;;;33.70;42.10;;;;;;4852978;29;20202;-73
2022/10/18 09:34:46;;;;;;;13.52;7.82;;;33.70;41.40;;;;;;4779922;30;20212;-72
2022/10/18 09:37:16;;;;;;;11.88;8.85;;;33.80;43.10;;;;;;4787015;30;20310;-73
2022/10/18 09:39:44;;;;;;;10.88;8.27;;;34.10;39.60;;;;;;4787452;29;20865;-74
2022/10/18 09:42:27;;;;;;;8.48;7.68;;;34.20;41.80;;;;;;4790335;30;20205;-74
2022/10/18 09:44:58;;;;;;;7.75;7.13;;;34.30;40.10;;;;;;4803065;29;20283;-73
2022/10/18 09:47:44;;;;;;;7.90;7.05;;;34.20;40.50;;;;;;4826525;29;20210;-73
2022/10/18 09:50:26;;;;;;;10.52;8.18;;;33.90;38.90;;;;;;4817267;29;20266;-74
2022/10/18 09:53:24;;;;;;;11.70;8.27;;;33.70;41.10;;;;;;4815235;29;20294;-74
2022/10/18 09:56:03;;;;;;;12.05;8.00;;;33.70;42.20;;;;;;4851303;29;20206;-74
2022/10/18 09:58:45;;;;;;;9.50;8.02;;;33.50;42.50;;;;;;4850285;29;20658;-74
2022/10/18 10:01:14;;;;;;;9.43;8.50;;;33.50;39.50;;;;;;4875135;29;20204;-74
2022/10/18 10:03:41;;;;;;;9.30;7.65;;;33.20;42.00;;;;;;4886533;29;20281;-73
2022/10/18 10:06:15;;;;;;;7.28;6.72;;;33.20;39.80;;;;;;4878246;29;20308;-74
2022/10/18 10:08:48;;;;;;;8.20;6.75;;;33.00;42.70;;;;;;4877392;29;20201;-74
2022/10/18 10:11:30;;;;;;;7.38;6.72;;;33.00;40.80;;;;;;4907656;28;20296;-74
2022/10/18 10:14:05;;;;;;;8.43;6.28;;;33.20;41.50;;;;;;4984394;28;20197;-73
2022/10/18 10:16:31;;;;;;;7.03;6.45;;;33.10;40.40;;;;;;4977061;28;20185;-74
2022/10/18 10:18:57;;;;;;;12.20;6.30;;;33.30;40.40;;;;;;4984033;28;20255;-73
2022/10/18 10:21:23;;;;;;;6.90;6.20;;;33.20;40.30;;;;;;4982273;28;20185;-73
2022/10/18 10:23:54;;;;;;;6.25;5.85;;;33.10;41.70;;;;;;4983074;28;20757;-73
2022/10/18 10:26:40;;;;;;;5.18;4.82;;;33.30;40.30;;;;;;4984504;28;20333;-73
2022/10/18 10:29:44;;;;;;;5.45;5.13;;;33.00;39.20;;;;;;4973196;28;20206;-72
2022/10/18 10:32:16;;;;;;;4.18;4.00;;;32.60;39.40;;;;;;4907054;29;20250;-73
2022/10/18 10:34:41;;;;;;;4.88;4.57;;;31.80;41.00;;;;;;4935880;29;20195;-74
2022/10/18 10:37:24;;;;;;;4.60;4.30;;;31.60;40.70;;;;;;4935962;29;20735;-74
2022/10/18 10:40:06;;;;;;;7.15;4.88;;;31.40;40.10;;;;;;4930760;29;20288;-74
2022/10/18 10:42:35;;;;;;;5.50;4.57;;;31.20;40.40;;;;;;4930024;29;20339;-73
2022/10/18 10:45:01;;;;;;;4.30;3.95;;;30.70;41.80;;;;;;4932702;29;20195;-74
2022/10/18 10:47:30;;;;;;;5.78;3.72;;;30.80;42.70;;;;;;4934872;28;20757;-73
2022/10/18 10:49:56;;;;;;;4.05;3.83;;;30.90;41.50;;;;;;4928420;28;20294;-74
2022/10/18 10:52:27;;;;;;;5.88;3.80;;;31.10;42.70;;;;;;4930246;29;20715;-74
2022/10/18 10:54:56;;;;;;;4.00;3.20;;;31.40;41.00;;;;;;4936052;29;20993;-74
2022/10/18 10:57:27;;;;;;;3.20;3.10;;;31.70;40.60;;;;;;4916551;29;20279;-74
2022/10/18 10:59:56;;;;;;;4.15;3.15;;;31.90;40.80;;;;;;4933692;29;20233;-73
2022/10/18 11:02:29;;;;;;;4.70;3.53;;;32.20;39.90;;;;;;4930571;29;20216;-74
2022/10/18 11:04:56;;;;;;;3.47;3.20;;;32.30;39.30;;;;;;4930206;29;20974;-74
2022/10/18 11:07:40;;;;;;;3.13;2.92;;;32.20;39.80;;;;;;4926249;29;20188;-73
2022/10/18 11:10:09;;;;;;;3.22;3.08;;;32.30;40.10;;;;;;5039849;28;20234;-73
2022/10/18 11:13:10;;;;;;;3.03;2.67;;;32.00;39.30;;;;;;5045730;28;20223;-74
2022/10/18 11:15:43;;;;;;;3.10;2.58;;;32.10;38.70;;;;;;5047806;28;20202;-73
2022/10/18 11:18:16;;;;;;;2.72;2.55;;;31.90;39.50;;;;;;5044784;28;20204;-74
2022/10/18 11:21:06;;;;;;;3.13;2.25;;;32.00;41.30;;;;;;5034424;28;20186;-74
2022/10/18 11:23:35;;;;;;;2.05;2.05;;;32.30;40.70;;;;;;5031524;28;20191;-73
2022/10/18 11:26:21;;;;;;;1.40;1.40;;;32.90;38.50;;;;;;5044377;28;20570;-74
2022/10/18 11:29:05;;;;;;;1.95;1.85;;;33.40;39.20;;;;;;5044891;28;20265;-74
2022/10/18 11:31:47;;;;;;;2.30;2.10;;;33.80;39.20;;;;;;5048558;28;20202;-73
2022/10/18 11:34:34;;;;;;;3.05;2.13;;;33.70;38.10;;;;;;5050230;28;20583;-73
2022/10/18 11:37:25;;;;;;;1.63;1.63;;;33.60;38.50;;;;;;5044415;28;20187;-73
2022/10/18 11:40:07;;;;;;;1.30;1.30;;;33.70;37.50;;;;;;5049697;28;20183;-73
2022/10/18 11:42:42;;;;;;;1.00;0.95;;;34.00;37.00;;;;;;5045666;28;20211;-74
2022/10/18 11:45:26;;;;;;;1.30;1.20;;;34.30;39.20;;;;;;5051408;28;20182;-73
2022/10/18 11:47:58;;;;;;;1.10;1.10;;;34.60;37.00;;;;;;5051012;28;20183;-73
2022/10/18 11:51:13;;;;;;;0.98;0.98;;;34.60;36.60;;;;;;5045285;28;20223;-73
2022/10/18 11:53:45;;;;;;;1.95;1.00;;;34.80;35.30;;;;;;4907847;29;20287;-74
2022/10/18 11:56:24;;;;;;;0.70;0.70;;;34.90;35.90;;;;;;4912804;29;20198;-73
2022/10/18 11:59:26;;;;;;;0.90;0.90;;;34.80;34.50;;;;;;4911395;29;20209;-73
2022/10/18 12:02:02;;;;;;;1.90;0.60;;;34.80;33.90;;;;;;4865032;29;20670;-73
2022/10/18 12:04:37;;;;;;;6.90;0.80;;;34.70;32.90;;;;;;4863026;29;20197;-74
2022/10/18 12:07:06;;;;;;;1.52;0.70;;;34.30;33.70;;;;;;4865128;29;20207;-74
2022/10/18 12:09:42;;;;;;;2.20;0.80;;;33.70;35.50;;;;;;4865137;29;20803;-73
2022/10/18 12:12:24;;;;;;;1.20;1.10;;;33.60;34.00;;;;;;4863893;29;20683;-74
2022/10/18 12:14:57;;;;;;;0.95;0.60;;;33.70;35.30;;;;;;4865731;29;20192;-73
2022/10/18 12:17:43;;;;;;;0.60;0.60;;;33.60;34.20;;;;;;4865638;29;20205;-73
2022/10/18 12:20:18;;;;;;;1.00;1.00;;;33.40;34.90;;;;;;4867264;29;20241;-73
2022/10/18 12:22:54;;;;;;;0.73;0.70;;;33.30;34.40;;;;;;4865426;29;20211;-73
2022/10/18 12:25:20;;;;;;;0.60;0.60;;;33.40;33.80;;;;;;4864540;29;20217;-74
2022/10/18 12:27:57;;;;;;;0.68;0.68;;;33.30;34.10;;;;;;4865093;29;20244;-73
2022/10/18 12:30:31;;;;;;;2.10;0.73;;;33.30;34.40;;;;;;4889926;28;20303;-73
2022/10/18 12:33:15;;;;;;;0.60;0.60;;;33.40;34.70;;;;;;4968736;28;20362;-73
2022/10/18 12:36:10;;;;;;;0.60;0.60;;;33.70;35.60;;;;;;4971364;28;20189;-73
2022/10/18 12:38:40;;;;;;;0.60;0.60;;;34.00;33.80;;;;;;4959993;28;20221;-73
2022/10/18 12:41:06;;;;;;;0.85;0.60;;;34.00;36.10;;;;;;4985415;28;20204;-73
2022/10/18 12:43:35;;;;;;;0.82;0.73;;;34.10;35.70;;;;;;4995045;28;20211;-73
2022/10/18 12:46:04;;;;;;;0.55;0.55;;;34.20;35.00;;;;;;4981062;28;20188;-74
2022/10/18 12:48:37;;;;;;;2.08;0.60;;;34.30;34.50;;;;;;4990400;28;20227;-73
2022/10/18 12:51:18;;;;;;;1.10;0.50;;;34.30;33.40;;;;;;4992122;28;20215;-74
2022/10/18 12:54:14;;;;;;;0.50;0.50;;;33.90;34.00;;;;;;4994830;28;20549;-73
2022/10/18 12:56:42;;;;;;;0.50;0.50;;;33.70;32.80;;;;;;4936198;29;21637;-72
2022/10/18 12:59:14;;;;;;;4.47;0.50;;;33.60;35.10;;;;;;4913857;29;20706;-73
2022/10/18 13:01:59;;;;;;;0.52;0.52;;;33.50;32.60;;;;;;4932108;29;20214;-73
2022/10/18 13:04:28;;;;;;;0.40;0.40;;;33.50;33.30;;;;;;4905389;29;20195;-73
2022/10/18 13:06:57;;;;;;;1.65;0.60;;;33.50;32.50;;;;;;4907704;29;20188;-73
2022/10/18 13:09:29;;;;;;;3.20;0.70;;;33.50;32.10;;;;;;4905677;29;20235;-73
2022/10/18 13:12:09;;;;;;;0.50;0.50;;;33.70;32.70;;;;;;4905562;29;20263;-74
2022/10/18 13:15:00;;;;;;;0.40;0.40;;;33.70;32.30;;;;;;4905669;29;20229;-74